Lebanon Springs, New York
Current Conditions -  °F | °C
As of 6:54 PM on Friday 24 Oct 2014 (Local Time) from KPSF Reporting Station
Overcast Overcast  
Wind Chill: 40°   Ceiling: 9000
Heat Index: 46°   Visibility: 10mi
Dew Point: 42°   Wind: 14mph
Humidity: 86%   Direction: 310°NW
Pressure: 29.79"   Gusts: NA
Location:  42.4821°N, 73.3747°W
Report Text: KPSF 242254Z AUTO 31012KT 10SM FEW025 SCT075 OVC090 08/06 A2979 RMK AO2 SLP084 T00780056
Loading
Personal Weather Stations






























Interactive Weather Map
Tropical Storm Tracking
New forecast layout! Learn more

10-Day Weather Forecast

Advertisements
Track Severe Weather on mobile